Empire Sandy — VCTG — position and weather

sailwx.info

Track history (hours):
 
Tides and Currents Weather Stations Pressure Air Temp Water Temp Dewpoint Dewpoint Depression Visibility Wind Speed Wind Dir Waves Ship Positions

Empire Sandy (Canada)

Ship's website: http://www.empiresandy.com/

Last reported at 2017-Jul-25 06:06 UTC. Time now 2017-Jul-27 00:37 UTC.
Position N 45°14' W 074°09'.

Length 61 m; draft 4 m.

Type: Sailing vessel. MMSI: 316225000.

Date/timePositionNaut miles runAvg speedWind from/ knotsBaromVisibWave heightAir tempDewpointWater temp
2017-Jul-25 06:06N 45°14' W 074°09'1 5.2
2017-Jul-25 05:57N 45°14' W 074°08'3 4.9
2017-Jul-25 05:19N 45°13' W 074°04'2 5.1
2017-Jul-25 04:58N 45°14' W 074°02'3 5.5
2017-Jul-25 04:30N 45°15' W 073°59'3 5.5
2017-Jul-25 03:58N 45°17' W 073°56'1 1.9
2017-Jul-25 03:31N 45°18' W 073°56'1 1.6
2017-Jul-25 02:59N 45°19' W 073°55'0 0.0
2017-Jul-25 02:31N 45°19' W 073°55'1 3.0
2017-Jul-25 02:00N 45°20' W 073°54'3 5.9
2017-Jul-25 01:30N 45°22' W 073°50'3 5.9
2017-Jul-25 01:00N 45°24' W 073°47'3 5.8
2017-Jul-25 00:31N 45°24' W 073°43'3 5.6
2017-Jul-25 00:00N 45°25' W 073°39'3 5.6
2017-Jul-24 23:28N 45°24' W 073°35'1 2.0
2017-Jul-24 22:53N 45°24' W 073°33'  
Track history (hours):
 
Tides and Currents Weather Stations Pressure Air Temp Water Temp Dewpoint Dewpoint Depression Visibility Wind Speed Wind Dir Waves Ship Positions

Empire Sandy (Canada)

Ship's website: http://www.empiresandy.com/

Last reported at 2017-Jul-25 06:06 UTC. Time now 2017-Jul-27 00:37 UTC.
Position N 45°14' W 074°09'.

Length 61 m; draft 4 m.

Type: Sailing vessel. MMSI: 316225000.

Date/timePositionNaut miles runAvg speedWind from/ knotsBaromVisibWave heightAir tempDewpointWater temp
2017-Jul-25 06:06N 45°14' W 074°09'1 5.2
2017-Jul-25 05:57N 45°14' W 074°08'3 4.9
2017-Jul-25 05:19N 45°13' W 074°04'2 5.1
2017-Jul-25 04:58N 45°14' W 074°02'3 5.5
2017-Jul-25 04:30N 45°15' W 073°59'3 5.5
2017-Jul-25 03:58N 45°17' W 073°56'1 1.9
2017-Jul-25 03:31N 45°18' W 073°56'1 1.6
2017-Jul-25 02:59N 45°19' W 073°55'0 0.0
2017-Jul-25 02:31N 45°19' W 073°55'1 3.0
2017-Jul-25 02:00N 45°20' W 073°54'3 5.9
2017-Jul-25 01:30N 45°22' W 073°50'3 5.9
2017-Jul-25 01:00N 45°24' W 073°47'3 5.8
2017-Jul-25 00:31N 45°24' W 073°43'3 5.6
2017-Jul-25 00:00N 45°25' W 073°39'3 5.6
2017-Jul-24 23:28N 45°24' W 073°35'1 2.0
2017-Jul-24 22:53N 45°24' W 073°33'  

Dump ship's entire track history